Time;durP1;ratioP1;P1;durP2;ratioP2;P2;SDS_P1;SDS_P2;PMS_P1;PMS_P2;Temp;Humidity;BMP_temperature;BMP_pressure;BME280_temperature;BME280_humidity;BME280_pressure;Samples;Min_cycle;Max_cycle;Signal;HPM_P1;HPM_P2
2022/01/28 00:00:18;;;;;;;;;43.25;35.00;;;;;10.64;71.68;102870.88;5116369;27;45336;-70
2022/01/28 00:02:59;;;;;;;;;38.50;33.50;;;;;10.39;72.08;102826.63;5118754;27;45152;-72
2022/01/28 00:05:25;;;;;;;;;46.50;34.00;;;;;10.67;72.02;102871.06;5120816;27;45177;-69
2022/01/28 00:07:52;;;;;;;;;44.50;35.00;;;;;10.68;71.99;102862.22;5109078;27;45428;-71
2022/01/28 00:10:19;;;;;;;;;39.00;34.75;;;;;10.68;72.08;102865.81;5126087;27;45386;-71
2022/01/28 00:15:27;;;;;;;;;40.00;33.00;;;;;10.70;71.81;102879.28;5110504;27;45342;-69
2022/01/28 00:39:31;;;;;;;;;37.50;34.50;;;;;10.66;72.27;102895.97;5115765;27;45225;-70
2022/01/28 00:41:56;;;;;;;;;44.50;36.50;;;;;10.48;72.22;102869.06;5113490;27;45362;-69
2022/01/28 00:44:22;;;;;;;;;40.75;32.00;;;;;10.54;72.26;102876.50;5100338;27;45374;-71
2022/01/28 00:46:47;;;;;;;;;34.75;30.50;;;;;10.62;71.90;102894.84;5107276;27;45370;-71
2022/01/28 00:49:13;;;;;;;;;30.75;28.50;;;;;10.68;71.95;102905.00;5109061;27;45389;-70
2022/01/28 00:51:38;;;;;;;;;48.00;36.75;;;;;10.65;71.47;102902.13;5101147;27;45266;-68
2022/01/28 00:54:03;;;;;;;;;50.75;37.25;;;;;10.69;71.89;102905.09;5108667;27;45421;-72
2022/01/28 00:56:29;;;;;;;;;40.00;35.00;;;;;10.63;72.17;102902.03;5118708;27;45243;-69
2022/01/28 00:58:54;;;;;;;;;44.00;34.50;;;;;10.66;71.93;102904.00;5119872;27;45073;-68
2022/01/28 01:01:19;;;;;;;;;49.00;36.25;;;;;10.66;71.98;102909.34;5123477;27;45655;-68
2022/01/28 01:03:45;;;;;;;;;49.00;37.75;;;;;10.68;71.91;102926.38;5114594;27;45392;-68
2022/01/28 01:06:10;;;;;;;;;39.25;30.25;;;;;10.56;72.03;102909.59;5110733;27;45343;-70
2022/01/28 01:08:36;;;;;;;;;43.50;35.50;;;;;10.61;72.07;102913.47;5114804;27;45055;-72
2022/01/28 01:11:02;;;;;;;;;49.25;36.50;;;;;10.64;72.08;102910.97;5116523;27;45471;-68
2022/01/28 01:13:28;;;;;;;;;48.00;37.50;;;;;10.60;72.30;102907.19;5125919;27;46038;-69
2022/01/28 01:15:57;;;;;;;;;52.00;41.25;;;;;10.59;72.19;102912.44;5103895;27;45270;-71
2022/01/28 01:18:34;;;;;;;;;42.50;35.75;;;;;10.38;71.78;102877.31;5110737;27;45388;-69
2022/01/28 01:21:07;;;;;;;;;48.00;36.75;;;;;10.63;71.30;102927.88;5122515;27;45169;-70
2022/01/28 01:23:36;;;;;;;;;50.00;38.75;;;;;10.62;71.71;102937.59;5119479;27;45001;-67
2022/01/28 01:28:33;;;;;;;;;47.00;35.75;;;;;10.65;71.67;102924.44;5127085;27;45210;-70
2022/01/28 01:31:02;;;;;;;;;42.25;36.25;;;;;10.36;71.39;102866.56;5116381;27;45628;-71
2022/01/28 01:33:30;;;;;;;;;40.25;30.00;;;;;10.70;71.09;102930.06;5113247;27;45226;-71
2022/01/28 01:36:00;;;;;;;;;42.25;33.50;;;;;10.41;71.30;102899.81;5111305;27;45216;-69
2022/01/28 01:38:27;;;;;;;;;39.50;33.75;;;;;10.67;71.58;102943.25;5102849;27;45376;-69
2022/01/28 01:40:58;;;;;;;;;44.75;35.25;;;;;10.68;71.90;102945.09;5113449;27;46588;-69
2022/01/28 01:53:50;;;;;;;;;46.00;36.75;;;;;10.70;71.10;102955.03;5106276;27;45485;-71
2022/01/28 01:56:16;;;;;;;;;41.50;34.00;;;;;10.60;70.93;102947.28;5113302;27;45363;-70
2022/01/28 01:58:41;;;;;;;;;43.75;34.50;;;;;10.24;70.94;102896.03;5120564;27;45881;-68
2022/01/28 02:01:07;;;;;;;;;49.50;34.75;;;;;10.65;71.11;102971.66;5124139;27;45687;-68
2022/01/28 02:03:32;;;;;;;;;43.50;36.00;;;;;10.63;70.97;102965.28;5116748;27;44984;-67
2022/01/28 02:06:00;;;;;;;;;40.75;32.75;;;;;10.62;70.81;102975.03;5110525;27;45369;-70
2022/01/28 02:08:33;;;;;;;;;40.25;34.75;;;;;10.58;70.65;102983.72;5125115;27;45710;-69
2022/01/28 02:10:59;;;;;;;;;37.25;30.50;;;;;10.34;70.54;102945.66;5111780;27;46482;-70
2022/01/28 02:13:26;;;;;;;;;42.00;34.25;;;;;10.46;70.23;102966.88;5130175;27;45252;-71
2022/01/28 02:15:53;;;;;;;;;37.00;32.75;;;;;10.48;70.25;102978.63;5122421;27;45148;-69
2022/01/28 02:18:19;;;;;;;;;38.75;31.50;;;;;10.38;70.80;102973.50;5118671;27;45119;-71
2022/01/28 02:20:48;;;;;;;;;43.75;32.75;;;;;10.40;69.93;102994.16;5116694;27;45837;-69
2022/01/28 02:23:13;;;;;;;;;45.75;30.75;;;;;10.38;70.09;102990.47;5114348;27;46219;-71
2022/01/28 02:25:39;;;;;;;;;41.25;33.50;;;;;10.38;70.63;102985.13;5123756;27;45130;-70
2022/01/28 02:28:07;;;;;;;;;42.75;31.25;;;;;10.35;70.55;102984.03;5118982;27;45502;-70
2022/01/28 02:30:33;;;;;;;;;42.25;35.75;;;;;10.33;70.13;102984.84;5105834;27;45345;-71
2022/01/28 02:33:10;;;;;;;;;49.50;34.50;;;;;10.24;70.88;102969.94;5107932;27;45451;-70
2022/01/28 02:35:36;;;;;;;;;36.25;31.75;;;;;9.86;70.67;102894.56;5118382;27;45412;-72
2022/01/28 02:38:02;;;;;;;;;35.00;31.25;;;;;10.16;70.65;102969.44;5112275;27;45521;-70
2022/01/28 02:40:27;;;;;;;;;29.25;29.25;;;;;10.08;70.23;102952.00;5113877;27;45051;-69
2022/01/28 02:43:16;;;;;;;;;45.00;28.25;;;;;10.24;70.47;102984.22;5109174;27;45291;-71
2022/01/28 02:45:43;;;;;;;;;38.00;32.75;;;;;10.28;70.84;103004.97;5118125;27;45342;-69
2022/01/28 02:48:16;;;;;;;;;37.75;31.75;;;;;10.22;70.54;102990.28;5113423;27;45527;-68
2022/01/28 02:50:49;;;;;;;;;39.75;31.50;;;;;10.20;70.76;102986.59;5116163;27;45802;-70
2022/01/28 02:53:24;;;;;;;;;42.25;34.50;;;;;10.14;70.63;102980.03;5118467;27;45403;-71
2022/01/28 02:55:57;;;;;;;;;39.25;33.25;;;;;10.27;70.41;102989.75;5126874;27;46320;-69
2022/01/28 02:58:26;;;;;;;;;39.00;35.50;;;;;10.33;70.57;102994.63;5135143;27;45153;-70
2022/01/28 03:00:54;;;;;;;;;40.50;32.00;;;;;10.01;70.21;102940.00;5121254;27;45945;-70
2022/01/28 03:03:23;;;;;;;;;33.50;32.75;;;;;10.35;69.84;103000.97;5115392;27;45186;-68
2022/01/28 03:05:49;;;;;;;;;35.75;30.00;;;;;10.23;69.83;102971.69;5122262;27;45214;-70
2022/01/28 03:08:16;;;;;;;;;41.25;28.75;;;;;10.35;69.67;102990.28;5114915;27;45052;-69
2022/01/28 03:10:59;;;;;;;;;24.25;23.25;;;;;10.30;69.72;102978.34;5125057;27;45168;-68
2022/01/28 03:16:19;;;;;;;;;41.25;33.75;;;;;10.27;69.76;102976.38;5096412;27;45250;-70
2022/01/28 03:21:39;;;;;;;;;37.50;30.75;;;;;10.31;69.69;102980.16;5118919;27;45130;-71
2022/01/28 03:24:07;;;;;;;;;31.75;31.75;;;;;10.29;69.30;102968.47;5103498;27;45471;-68
2022/01/28 03:26:33;;;;;;;;;40.00;34.00;;;;;10.22;69.43;102968.94;5112694;27;45462;-69
2022/01/28 03:28:58;;;;;;;;;34.25;27.00;;;;;10.18;69.19;102981.16;5118414;27;45396;-70
2022/01/28 03:31:23;;;;;;;;;33.00;31.75;;;;;10.17;69.46;102987.31;5113016;27;45644;-69
2022/01/28 03:33:49;;;;;;;;;40.50;31.00;;;;;10.17;69.71;102986.41;5114916;27;44996;-68
2022/01/28 03:36:14;;;;;;;;;39.50;32.00;;;;;10.16;69.67;102985.47;5104557;27;45619;-71
2022/01/28 03:38:41;;;;;;;;;35.00;28.25;;;;;10.18;69.97;102978.50;5105362;27;45495;-70
2022/01/28 03:41:16;;;;;;;;;44.50;36.00;;;;;9.46;69.36;102841.28;5100942;27;46054;-69
2022/01/28 03:43:42;;;;;;;;;34.25;32.75;;;;;10.04;69.67;102960.66;5111676;27;45382;-68
2022/01/28 03:46:09;;;;;;;;;35.25;31.25;;;;;10.17;70.08;102979.31;5114893;27;46782;-68
2022/01/28 03:48:35;;;;;;;;;42.50;35.00;;;;;10.18;69.44;102990.91;5104605;27;46040;-68
2022/01/28 03:51:00;;;;;;;;;34.50;29.75;;;;;10.17;70.07;102989.09;5098073;27;46635;-70
2022/01/28 03:53:25;;;;;;;;;33.50;25.50;;;;;10.07;69.57;102977.78;5101921;27;45378;-69
2022/01/28 03:55:52;;;;;;;;;39.50;30.25;;;;;10.23;69.56;103000.13;5107291;27;45504;-69
2022/01/28 03:58:18;;;;;;;;;44.50;33.25;;;;;10.26;69.05;103011.03;5105109;27;45435;-71
2022/01/28 04:00:44;;;;;;;;;38.00;31.75;;;;;10.12;69.30;102978.09;5109428;27;45516;-71
2022/01/28 04:03:24;;;;;;;;;34.25;31.75;;;;;10.20;69.24;103006.22;5102917;27;45417;-68
2022/01/28 04:13:47;;;;;;;;;30.00;28.50;;;;;10.17;69.02;102999.78;5102117;27;45506;-69
2022/01/28 04:18:48;;;;;;;;;45.75;32.50;;;;;10.28;68.88;103007.63;5096525;27;45401;-69
2022/01/28 04:21:14;;;;;;;;;39.25;35.25;;;;;10.30;68.79;103003.31;5108529;27;46408;-69
2022/01/28 04:23:40;;;;;;;;;48.25;38.75;;;;;10.41;68.98;103011.09;5105601;27;45738;-68
2022/01/28 04:26:05;;;;;;;;;35.75;32.25;;;;;10.42;68.86;103015.63;5104863;27;45494;-70
2022/01/28 04:28:31;;;;;;;;;34.50;31.00;;;;;10.31;69.23;102996.22;5104850;27;45418;-69
2022/01/28 04:30:56;;;;;;;;;43.25;34.75;;;;;10.20;68.63;102986.59;5112428;27;45683;-68
2022/01/28 04:33:21;;;;;;;;;34.00;30.25;;;;;10.40;68.34;103019.97;5112413;27;45570;-67
2022/01/28 04:35:50;;;;;;;;;44.50;35.00;;;;;10.40;68.58;103017.31;5110199;27;45389;-69
2022/01/28 04:38:39;;;;;;;;;45.75;35.00;;;;;10.40;68.59;103017.31;5108190;27;45126;-71
2022/01/28 04:43:43;;;;;;;;;46.25;35.00;;;;;10.43;68.92;103015.75;5109684;27;45536;-69
2022/01/28 04:46:37;;;;;;;;;41.50;31.00;;;;;10.44;69.30;103016.66;5101277;27;45613;-68
2022/01/28 05:00:18;;;;;;;;;41.00;32.50;;;;;10.32;68.77;103027.50;5096348;27;45598;-69
2022/01/28 05:07:33;;;;;;;;;47.50;37.00;;;;;10.38;68.96;103037.63;5114288;27;45539;-70
2022/01/28 05:10:38;;;;;;;;;44.50;32.00;;;;;10.34;68.27;103041.88;5121168;27;45440;-71
2022/01/28 05:26:37;;;;;;;;;42.25;36.00;;;;;10.14;68.96;103056.56;5099623;27;45640;-69
2022/01/28 05:29:03;;;;;;;;;39.50;32.00;;;;;10.20;68.49;103065.00;5117635;27;45656;-68
2022/01/28 05:31:28;;;;;;;;;41.50;33.75;;;;;10.22;68.67;103066.00;5097683;27;45613;-70
2022/01/28 05:33:53;;;;;;;;;37.25;31.75;;;;;10.08;68.61;103041.09;5094861;27;46501;-70
2022/01/28 05:36:19;;;;;;;;;34.50;28.75;;;;;10.07;68.84;103055.25;5100614;27;45422;-68
2022/01/28 05:38:44;;;;;;;;;37.75;31.75;;;;;10.13;68.45;103053.00;5111865;27;45829;-69
2022/01/28 05:41:10;;;;;;;;;44.50;34.25;;;;;10.26;68.30;103078.75;5113656;27;45345;-68
2022/01/28 05:43:35;;;;;;;;;35.25;27.25;;;;;10.23;68.63;103073.22;5103112;27;45602;-67
2022/01/28 05:46:00;;;;;;;;;34.25;30.00;;;;;10.17;68.34;103067.47;5107888;27;45438;-67
2022/01/28 05:48:26;;;;;;;;;39.00;30.50;;;;;10.20;68.46;103082.78;5093942;27;45419;-67
2022/01/28 05:50:51;;;;;;;;;35.00;25.50;;;;;10.18;68.46;103088.03;5097661;27;45192;-67
2022/01/28 05:53:16;;;;;;;;;32.25;29.75;;;;;10.14;68.13;103089.53;5094799;27;45307;-68
2022/01/28 05:55:42;;;;;;;;;44.00;33.75;;;;;10.05;68.62;103078.28;5106373;27;45277;-66
2022/01/28 05:58:08;;;;;;;;;34.75;30.00;;;;;10.09;68.17;103100.75;5105792;27;45424;-70
2022/01/28 06:00:33;;;;;;;;;38.25;32.50;;;;;10.07;67.53;103106.00;5116533;27;45405;-72
2022/01/28 06:02:59;;;;;;;;;44.25;33.00;;;;;10.07;67.56;103108.66;5109338;27;45486;-70
2022/01/28 06:05:30;;;;;;;;;38.25;32.50;;;;;9.77;67.88;103060.41;5105355;27;45800;-69
2022/01/28 06:07:59;;;;;;;;;30.75;27.25;;;;;9.98;67.62;103102.69;5108671;27;45416;-68
2022/01/28 06:10:25;;;;;;;;;40.00;32.50;;;;;10.12;67.36;103119.66;5090877;27;45515;-69
2022/01/28 06:12:50;;;;;;;;;37.75;29.75;;;;;10.06;67.51;103114.81;5111429;27;46273;-68
2022/01/28 06:15:16;;;;;;;;;37.50;31.00;;;;;10.13;67.93;103122.44;5095149;27;45376;-69
2022/01/28 06:17:42;;;;;;;;;35.50;26.25;;;;;10.12;67.50;103117.91;5107533;27;45412;-70
2022/01/28 06:20:10;;;;;;;;;42.25;34.00;;;;;10.11;68.12;103121.41;5099337;27;45442;-69
2022/01/28 06:22:39;;;;;;;;;37.50;32.25;;;;;9.73;67.88;103042.34;5094155;27;47460;-70
2022/01/28 06:25:05;;;;;;;;;43.75;29.25;;;;;10.13;68.30;103111.75;5094263;27;45615;-68
2022/01/28 06:27:31;;;;;;;;;36.25;32.75;;;;;9.98;68.15;103089.34;5097839;27;45495;-70
2022/01/28 06:29:56;;;;;;;;;39.25;33.25;;;;;10.06;67.88;103104.13;5103442;27;45687;-68
2022/01/28 06:32:21;;;;;;;;;39.00;32.25;;;;;10.12;67.72;103117.00;5097875;27;45544;-69
2022/01/28 06:34:47;;;;;;;;;53.50;39.75;;;;;10.14;67.39;103113.59;5105753;27;45467;-70
2022/01/28 06:37:12;;;;;;;;;49.00;38.00;;;;;10.16;67.68;103124.38;5103743;27;45645;-71
2022/01/28 06:39:37;;;;;;;;;58.00;39.00;;;;;9.99;68.87;103093.88;5098256;27;45645;-69
2022/01/28 06:42:03;;;;;;;;;53.50;40.00;;;;;10.04;68.57;103110.22;5097482;27;45877;-70
2022/01/28 06:44:30;;;;;;;;;57.25;42.50;;;;;9.99;69.20;103107.22;5097647;27;45472;-72
2022/01/28 06:46:55;;;;;;;;;57.25;42.00;;;;;9.89;68.96;103104.78;5108123;27;45558;-70
2022/01/28 06:49:21;;;;;;;;;51.00;41.25;;;;;9.93;68.92;103123.78;5102012;27;45576;-69
2022/01/28 06:51:46;;;;;;;;;50.50;42.00;;;;;9.83;69.75;103118.63;5104778;27;45588;-70
2022/01/28 06:54:11;;;;;;;;;57.75;41.00;;;;;9.52;69.37;103063.19;5098626;27;45228;-71
2022/01/28 06:56:37;;;;;;;;;53.25;43.25;;;;;9.90;69.50;103128.91;5106317;27;45299;-70
2022/01/28 06:59:03;;;;;;;;;58.00;44.00;;;;;9.93;69.62;103129.13;5107733;27;45595;-71
2022/01/28 07:01:29;;;;;;;;;54.00;45.00;;;;;9.82;69.12;103110.53;5097430;27;47174;-69
2022/01/28 07:03:54;;;;;;;;;62.50;49.75;;;;;9.69;68.75;103079.41;5112070;27;45400;-69
2022/01/28 07:06:21;;;;;;;;;54.00;40.50;;;;;9.93;68.95;103125.50;5113134;27;45792;-69
2022/01/28 07:08:47;;;;;;;;;46.25;39.00;;;;;9.96;68.50;103142.69;5100182;27;45621;-68
2022/01/28 07:11:12;;;;;;;;;57.00;42.75;;;;;9.86;68.65;103141.94;5103221;27;46308;-70
2022/01/28 07:13:37;;;;;;;;;53.75;40.00;;;;;9.81;69.20;103138.03;5107106;27;45376;-68
2022/01/28 07:16:03;;;;;;;;;55.50;45.50;;;;;9.78;69.39;103142.38;5089397;27;45373;-68
2022/01/28 07:18:29;;;;;;;;;52.50;43.00;;;;;9.28;69.22;103057.09;5106511;27;46320;-69
2022/01/28 07:20:54;;;;;;;;;53.00;41.50;;;;;9.68;69.57;103133.59;5104743;27;46300;-69
2022/01/28 07:23:20;;;;;;;;;52.25;40.50;;;;;9.80;69.10;103155.81;5095922;27;45462;-68
2022/01/28 07:25:45;;;;;;;;;58.50;45.50;;;;;9.85;69.32;103154.38;5097311;27;45925;-70
2022/01/28 07:28:12;;;;;;;;;57.50;42.50;;;;;9.69;68.72;103123.03;5096877;27;45537;-69
2022/01/28 07:30:38;;;;;;;;;58.75;44.50;;;;;9.90;68.50;103155.63;5096523;27;45522;-70
2022/01/28 07:33:06;;;;;;;;;54.75;41.50;;;;;9.95;68.97;103171.97;5096663;27;45475;-68
2022/01/28 07:35:35;;;;;;;;;59.25;45.00;;;;;9.88;68.88;103154.59;5096285;27;45575;-69
2022/01/28 07:38:00;;;;;;;;;56.25;42.75;;;;;10.01;68.05;103174.09;5109248;27;45340;-68
2022/01/28 07:40:26;;;;;;;;;54.00;41.75;;;;;10.00;68.34;103173.19;5115748;27;48068;-70
2022/01/28 07:42:51;;;;;;;;;53.25;43.00;;;;;10.04;68.61;103172.56;5116297;27;45400;-69
2022/01/28 07:45:17;;;;;;;;;56.25;45.25;;;;;10.04;68.14;103179.66;5116036;27;45243;-68
2022/01/28 07:47:44;;;;;;;;;48.00;38.25;;;;;9.81;68.12;103144.28;5116549;27;45696;-68
2022/01/28 07:50:11;;;;;;;;;55.50;40.50;;;;;9.93;68.40;103162.88;5116025;27;45324;-69
2022/01/28 07:52:37;;;;;;;;;61.50;44.00;;;;;9.83;67.95;103155.09;5114530;27;45665;-69
2022/01/28 07:55:05;;;;;;;;;54.00;42.25;;;;;9.92;68.19;103171.75;5116043;27;45475;-69
2022/01/28 07:57:30;;;;;;;;;56.50;43.00;;;;;9.92;67.94;103172.66;5115852;27;45502;-70
2022/01/28 07:59:56;;;;;;;;;53.75;39.50;;;;;9.38;67.47;103086.22;5116031;27;46238;-70
2022/01/28 08:02:22;;;;;;;;;49.75;39.00;;;;;10.04;67.95;103201.03;5115818;27;44872;-68
2022/01/28 08:04:47;;;;;;;;;53.50;39.50;;;;;10.06;67.91;103205.63;5116029;27;45280;-70
2022/01/28 08:07:12;;;;;;;;;56.50;41.25;;;;;10.07;67.69;103214.59;5116361;27;45447;-69
2022/01/28 08:09:38;;;;;;;;;54.00;42.00;;;;;10.08;67.02;103213.75;5115711;27;46149;-68
2022/01/28 08:12:03;;;;;;;;;46.50;33.25;;;;;10.07;66.56;103217.25;5116088;27;45286;-67
2022/01/28 08:14:31;;;;;;;;;44.75;36.50;;;;;10.06;66.06;103210.06;5115972;27;45453;-70
2022/01/28 08:16:57;;;;;;;;;43.75;33.00;;;;;10.08;66.26;103209.34;5116443;27;45774;-69
2022/01/28 08:19:22;;;;;;;;;42.25;35.75;;;;;10.13;65.16;103207.00;5115550;27;45957;-69
2022/01/28 08:21:48;;;;;;;;;43.50;32.50;;;;;10.10;65.67;103210.38;5115711;27;45558;-69
2022/01/28 08:24:13;;;;;;;;;51.75;40.00;;;;;10.02;65.52;103203.59;5115984;27;45661;-71
2022/01/28 08:26:38;;;;;;;;;33.25;31.75;;;;;10.09;64.99;103211.19;5096888;27;45574;-69
2022/01/28 08:29:06;;;;;;;;;49.00;34.75;;;;;10.04;65.05;103198.34;5114989;27;46142;-68
2022/01/28 08:31:32;;;;;;;;;52.00;35.25;;;;;10.06;65.08;103210.06;5115215;27;45422;-69
2022/01/28 08:33:57;;;;;;;;;41.75;34.50;;;;;10.11;64.63;103225.59;5114985;27;45498;-68
2022/01/28 08:36:23;;;;;;;;;57.00;43.50;;;;;10.02;65.62;103208.94;5116295;27;45556;-68
2022/01/28 08:38:50;;;;;;;;;41.75;36.75;;;;;10.18;64.45;103239.34;5109187;27;46118;-68
2022/01/28 08:41:15;;;;;;;;;48.75;39.50;;;;;9.93;65.14;103201.22;5115713;27;45293;-68
2022/01/28 08:43:41;;;;;;;;;36.75;32.00;;;;;10.19;64.81;103252.81;5115323;27;45296;-70
2022/01/28 08:46:08;;;;;;;;;39.75;32.25;;;;;10.13;64.64;103236.38;5115775;27;45556;-70
2022/01/28 08:48:33;;;;;;;;;39.00;31.75;;;;;10.11;64.53;103227.31;5115588;27;45435;-67
2022/01/28 08:50:59;;;;;;;;;47.75;36.25;;;;;10.27;64.38;103262.28;5115599;27;45522;-67
2022/01/28 08:53:24;;;;;;;;;44.00;34.75;;;;;10.07;64.27;103228.88;5115457;27;45299;-71
2022/01/28 08:55:50;;;;;;;;;43.50;34.50;;;;;10.28;63.57;103269.47;5115744;27;45483;-68
2022/01/28 08:58:16;;;;;;;;;47.75;37.75;;;;;10.15;64.65;103251.69;5115082;27;45526;-69
2022/01/28 09:00:45;;;;;;;;;50.50;36.50;;;;;10.12;64.44;103242.53;5115109;27;45389;-69
2022/01/28 09:03:15;;;;;;;;;39.50;34.75;;;;;10.25;63.91;103277.28;5111036;27;45559;-68
2022/01/28 09:05:41;;;;;;;;;38.00;30.00;;;;;9.70;64.27;103204.97;5095214;27;45289;-69
2022/01/28 09:08:08;;;;;;;;;39.75;29.00;;;;;10.08;64.20;103285.88;5094760;27;45504;-70
2022/01/28 09:10:37;;;;;;;;;36.25;32.25;;;;;9.95;64.04;103270.78;5095208;27;45306;-70
2022/01/28 09:15:33;;;;;;;;;42.75;32.75;;;;;9.86;64.41;103249.66;5095320;27;45524;-71
2022/01/28 09:17:58;;;;;;;;;43.50;34.25;;;;;10.00;63.92;103266.66;5094885;27;45525;-71
2022/01/28 09:20:32;;;;;;;;;41.50;32.00;;;;;10.10;64.05;103279.81;5094812;27;45276;-68
2022/01/28 09:22:59;;;;;;;;;34.25;32.00;;;;;10.11;63.75;103279.03;5095123;27;45298;-70
2022/01/28 09:25:25;;;;;;;;;35.25;31.25;;;;;10.10;63.86;103285.16;5095621;27;45401;-67
2022/01/28 09:27:51;;;;;;;;;37.25;31.25;;;;;10.07;63.99;103270.69;5095442;27;45377;-69
2022/01/28 09:30:16;;;;;;;;;40.75;31.75;;;;;10.03;63.87;103258.88;5095586;27;45402;-70
2022/01/28 09:32:42;;;;;;;;;35.50;28.50;;;;;10.22;63.06;103290.44;5095507;27;45814;-71
2022/01/28 09:35:08;;;;;;;;;36.75;28.75;;;;;10.25;62.80;103290.66;5095269;27;45364;-68
2022/01/28 09:37:34;;;;;;;;;35.25;27.75;;;;;9.94;62.21;103243.13;5094392;27;47487;-70
2022/01/28 09:40:00;;;;;;;;;35.50;28.75;;;;;10.17;62.05;103294.53;5094670;27;45433;-71
2022/01/28 09:42:30;;;;;;;;;35.75;30.00;;;;;10.15;61.59;103283.75;5095081;27;45349;-69
2022/01/28 09:44:57;;;;;;;;;37.75;25.00;;;;;10.27;61.64;103301.44;5094692;27;45255;-70
2022/01/28 09:47:23;;;;;;;;;38.50;30.25;;;;;10.27;61.25;103298.75;5094395;27;46434;-71
2022/01/28 09:49:49;;;;;;;;;37.25;29.00;;;;;9.98;61.43;103235.31;5094208;27;45413;-68
2022/01/28 09:52:14;;;;;;;;;28.75;25.50;;;;;10.31;61.71;103299.09;5094723;27;45671;-71
2022/01/28 09:54:43;;;;;;;;;33.75;30.00;;;;;10.33;61.59;103296.56;5094634;27;45534;-69
2022/01/28 09:57:09;;;;;;;;;32.75;28.00;;;;;10.27;61.77;103266.69;5094178;27;46362;-71
2022/01/28 09:59:36;;;;;;;;;41.00;32.00;;;;;10.29;61.80;103271.31;5094605;27;45584;-68
2022/01/28 10:02:02;;;;;;;;;33.75;27.00;;;;;10.43;61.29;103291.00;5091995;27;45774;-69
2022/01/28 10:04:27;;;;;;;;;37.50;27.00;;;;;10.45;61.53;103301.81;5094874;27;45530;-70
2022/01/28 10:06:54;;;;;;;;;33.75;24.75;;;;;10.44;61.02;103292.88;5093874;27;45477;-70
2022/01/28 10:09:22;;;;;;;;;34.75;27.25;;;;;10.36;61.18;103272.72;5094403;27;45554;-71
2022/01/28 10:11:50;;;;;;;;;38.25;29.50;;;;;10.52;61.19;103304.06;5094115;27;45316;-69
2022/01/28 10:14:19;;;;;;;;;28.00;25.75;;;;;10.43;61.08;103271.38;5094373;27;45478;-70
2022/01/28 10:16:56;;;;;;;;;37.25;32.00;;;;;10.55;61.04;103300.69;5094277;27;46121;-70
2022/01/28 10:19:24;;;;;;;;;40.00;29.25;;;;;10.51;61.37;103312.94;5094321;27;45615;-69
2022/01/28 10:21:49;;;;;;;;;27.50;24.00;;;;;10.42;61.15;103293.56;5094243;27;45602;-69
2022/01/28 10:24:24;;;;;;;;;28.00;24.75;;;;;10.18;60.93;103253.66;5075660;27;45506;-71
2022/01/28 10:26:59;;;;;;;;;31.75;24.00;;;;;10.25;61.30;103268.34;5093974;27;45476;-68
2022/01/28 10:29:36;;;;;;;;;29.25;26.50;;;;;10.19;60.72;103255.47;5093986;27;45341;-69
2022/01/28 10:32:08;;;;;;;;;22.75;22.25;;;;;10.54;60.85;103304.16;5094176;27;45234;-68
2022/01/28 10:34:45;;;;;;;;;37.75;28.50;;;;;10.57;60.78;103307.97;5094740;27;45414;-68
2022/01/28 10:37:14;;;;;;;;;27.00;26.25;;;;;10.60;60.33;103308.19;5094059;27;46900;-67
2022/01/28 10:40:01;;;;;;;;;30.75;25.50;;;;;10.48;60.23;103286.91;5100689;27;45452;-68
2022/01/28 10:42:48;;;;;;;;;25.75;23.00;;;;;10.58;60.49;103296.47;5101555;27;45358;-69
2022/01/28 10:45:17;;;;;;;;;30.75;25.25;;;;;10.65;59.91;103295.13;5113560;27;46358;-70
2022/01/28 10:47:45;;;;;;;;;28.75;25.25;;;;;10.81;59.61;103318.47;5113454;27;45957;-72
2022/01/28 10:50:22;;;;;;;;;44.25;36.25;;;;;10.88;60.62;103313.63;5113021;27;45460;-70
2022/01/28 10:53:08;;;;;;;;;33.25;26.25;;;;;10.96;59.72;103321.25;5113470;27;45388;-69
2022/01/28 10:55:39;;;;;;;;;38.00;26.25;;;;;10.95;58.65;103312.28;5113048;27;45625;-71
2022/01/28 10:58:07;;;;;;;;;35.25;27.00;;;;;11.00;59.18;103321.53;5113096;27;45520;-70
2022/01/28 11:00:44;;;;;;;;;22.75;22.00;;;;;10.87;58.99;103297.47;5113205;27;45293;-70
2022/01/28 11:03:12;;;;;;;;;36.00;26.75;;;;;10.76;58.31;103272.72;5113516;27;45360;-68
2022/01/28 11:05:39;;;;;;;;;33.25;26.25;;;;;10.98;59.08;103325.84;5113457;27;45615;-71
2022/01/28 11:08:07;;;;;;;;;34.50;23.25;;;;;10.87;58.74;103316.19;5112652;27;46320;-69
2022/01/28 11:10:33;;;;;;;;;35.75;28.50;;;;;10.82;59.19;103299.88;5113174;27;45590;-69
2022/01/28 11:13:00;;;;;;;;;28.75;27.50;;;;;10.93;59.02;103331.75;5114286;27;45560;-70
2022/01/28 11:15:27;;;;;;;;;29.50;28.25;;;;;10.93;58.97;103324.63;5117061;27;45762;-70
2022/01/28 11:17:53;;;;;;;;;38.50;29.75;;;;;10.44;58.95;103220.72;5116192;27;46211;-69
2022/01/28 11:20:22;;;;;;;;;43.75;35.25;;;;;10.97;58.95;103301.69;5116256;27;45368;-71
2022/01/28 11:23:08;;;;;;;;;41.75;30.25;;;;;10.85;59.52;103261.69;5116747;27;45520;-73
2022/01/28 11:26:04;;;;;;;;;29.75;25.50;;;;;11.12;59.50;103308.06;5116636;27;45595;-69
2022/01/28 11:28:44;;;;;;;;;35.75;27.00;;;;;11.09;58.84;103309.56;5100172;27;46229;-70
2022/01/28 11:31:11;;;;;;;;;37.75;26.75;;;;;10.92;59.00;103296.00;5096297;27;45480;-71
2022/01/28 11:33:46;;;;;;;;;23.50;23.00;;;;;10.94;58.77;103301.47;5096543;27;45357;-70
2022/01/28 11:36:11;;;;;;;;;30.50;26.25;;;;;10.95;59.00;103303.34;5096825;27;45443;-70
2022/01/28 11:38:43;;;;;;;;;41.00;33.00;;;;;10.96;58.98;103292.75;5096060;27;45967;-70
2022/01/28 11:41:15;;;;;;;;;29.50;23.25;;;;;10.99;59.10;103297.38;5077469;27;45562;-69
2022/01/28 11:43:49;;;;;;;;;26.00;21.25;;;;;10.32;58.84;103187.81;5095937;27;45547;-71
2022/01/28 11:46:19;;;;;;;;;26.75;24.00;;;;;10.90;59.07;103278.94;5102998;27;45427;-71
2022/01/28 11:48:57;;;;;;;;;41.00;36.50;;;;;10.74;59.92;103260.03;5109368;27;46209;-71
2022/01/28 11:51:32;;;;;;;;;32.25;28.75;;;;;10.83;60.29;103271.38;5097229;27;45329;-68
2022/01/28 11:54:00;;;;;;;;;36.25;25.50;;;;;10.83;59.86;103279.38;5116147;27;45402;-70
2022/01/28 11:56:26;;;;;;;;;24.75;23.50;;;;;10.59;60.41;103238.56;5115890;27;45535;-70
2022/01/28 11:58:58;;;;;;;;;30.25;28.75;;;;;10.80;60.13;103274.75;5115882;27;45408;-69
2022/01/28 12:01:25;;;;;;;;;38.25;24.50;;;;;10.57;59.53;103227.78;5115875;27;45305;-71
2022/01/28 12:04:11;;;;;;;;;35.00;30.75;;;;;10.79;59.94;103262.22;5115778;27;45489;-71
2022/01/28 12:06:38;;;;;;;;;36.50;30.00;;;;;10.81;60.61;103255.22;5096779;27;45533;-71
2022/01/28 12:09:05;;;;;;;;;30.75;28.25;;;;;10.79;60.25;103256.88;5114854;27;45334;-70
2022/01/28 12:11:44;;;;;;;;;35.75;25.25;;;;;10.65;60.15;103221.19;5115395;27;45483;-70
2022/01/28 12:14:13;;;;;;;;;33.50;29.25;;;;;10.57;59.67;103197.44;5115866;27;45251;-70
2022/01/28 12:16:42;;;;;;;;;26.75;24.00;;;;;10.70;60.10;103238.44;5116667;27;45571;-70
2022/01/28 12:19:34;;;;;;;;;28.00;24.00;;;;;10.70;59.87;103243.78;5097886;27;46274;-67
2022/01/28 12:22:05;;;;;;;;;31.00;26.50;;;;;10.69;59.76;103239.28;5096563;27;45440;-68
2022/01/28 12:24:33;;;;;;;;;25.75;16.50;;;;;10.68;60.17;103236.50;5094042;27;45474;-71
2022/01/28 12:27:11;;;;;;;;;32.50;29.50;;;;;10.64;60.01;103230.06;5078276;27;45626;-69
2022/01/28 12:29:47;;;;;;;;;41.00;33.25;;;;;10.63;60.09;103225.50;5096204;27;45891;-69
2022/01/28 12:32:13;;;;;;;;;30.50;26.75;;;;;10.51;60.13;103200.66;5095573;27;45854;-70
2022/01/28 12:34:43;;;;;;;;;24.75;23.00;;;;;10.60;60.29;103222.63;5077362;27;45521;-70
2022/01/28 12:37:09;;;;;;;;;29.75;27.25;;;;;10.43;59.90;103183.19;5096091;27;45424;-68
2022/01/28 12:39:51;;;;;;;;;30.75;25.00;;;;;10.58;59.06;103218.03;5096008;27;45512;-70
2022/01/28 12:44:51;;;;;;;;;36.25;24.25;;;;;10.49;59.42;103203.22;5115817;27;45475;-68